sensor_id;sensor_type;location;lat;lon;timestamp;pressure;altitude;pressure_sealevel;temperature
66403;BMP180;53212;52.112;5.144;2022-11-20T00:01:18;101327.00;;;-3.10
66403;BMP180;53212;52.112;5.144;2022-11-20T00:03:44;101331.60;;;-3.20
66403;BMP180;53212;52.112;5.144;2022-11-20T00:06:14;101334.80;;;-3.40
66403;BMP180;53212;52.112;5.144;2022-11-20T00:08:40;101338.00;;;-3.40
66403;BMP180;53212;52.112;5.144;2022-11-20T00:11:09;101341.00;;;-3.40
66403;BMP180;53212;52.112;5.144;2022-11-20T00:13:34;101335.80;;;-3.40
66403;BMP180;53212;52.112;5.144;2022-11-20T00:16:03;101333.20;;;-3.30
66403;BMP180;53212;52.112;5.144;2022-11-20T00:18:29;101328.00;;;-3.30
66403;BMP180;53212;52.112;5.144;2022-11-20T00:21:06;101330.20;;;-3.34
66403;BMP180;53212;52.112;5.144;2022-11-20T00:23:32;101332.60;;;-3.40
66403;BMP180;53212;52.112;5.144;2022-11-20T00:26:04;101332.20;;;-3.40
66403;BMP180;53212;52.112;5.144;2022-11-20T00:28:30;101325.60;;;-3.40
66403;BMP180;53212;52.112;5.144;2022-11-20T00:31:04;101319.40;;;-3.40
66403;BMP180;53212;52.112;5.144;2022-11-20T00:33:30;101310.20;;;-3.40
66403;BMP180;53212;52.112;5.144;2022-11-20T00:36:05;101311.80;;;-3.40
66403;BMP180;53212;52.112;5.144;2022-11-20T00:38:32;101302.20;;;-3.46
66403;BMP180;53212;52.112;5.144;2022-11-20T00:40:59;101300.60;;;-3.42
66403;BMP180;53212;52.112;5.144;2022-11-20T00:43:26;101292.20;;;-3.50
66403;BMP180;53212;52.112;5.144;2022-11-20T00:46:20;101296.20;;;-3.50
66403;BMP180;53212;52.112;5.144;2022-11-20T00:48:45;101290.40;;;-3.50
66403;BMP180;53212;52.112;5.144;2022-11-20T00:51:13;101290.60;;;-3.50
66403;BMP180;53212;52.112;5.144;2022-11-20T00:53:39;101291.00;;;-3.48
66403;BMP180;53212;52.112;5.144;2022-11-20T00:56:09;101290.40;;;-3.50
66403;BMP180;53212;52.112;5.144;2022-11-20T00:58:37;101294.00;;;-3.50
66403;BMP180;53212;52.112;5.144;2022-11-20T01:01:13;101296.20;;;-3.60
66403;BMP180;53212;52.112;5.144;2022-11-20T01:03:42;101298.40;;;-3.60
66403;BMP180;53212;52.112;5.144;2022-11-20T01:06:14;101298.60;;;-3.60
66403;BMP180;53212;52.112;5.144;2022-11-20T01:08:40;101299.60;;;-3.60
66403;BMP180;53212;52.112;5.144;2022-11-20T01:11:14;101309.80;;;-3.60
66403;BMP180;53212;52.112;5.144;2022-11-20T01:13:41;101309.60;;;-3.60
66403;BMP180;53212;52.112;5.144;2022-11-20T01:16:16;101309.20;;;-3.60
66403;BMP180;53212;52.112;5.144;2022-11-20T01:18:45;101305.60;;;-3.60
66403;BMP180;53212;52.112;5.144;2022-11-20T01:21:15;101300.60;;;-3.60
66403;BMP180;53212;52.112;5.144;2022-11-20T01:23:43;101299.00;;;-3.60
66403;BMP180;53212;52.112;5.144;2022-11-20T01:26:14;101293.80;;;-3.60
66403;BMP180;53212;52.112;5.144;2022-11-20T01:28:40;101290.40;;;-3.60
66403;BMP180;53212;52.112;5.144;2022-11-20T01:31:23;101287.40;;;-3.60
66403;BMP180;53212;52.112;5.144;2022-11-20T01:33:52;101283.20;;;-3.60
66403;BMP180;53212;52.112;5.144;2022-11-20T01:36:21;101286.60;;;-3.70
66403;BMP180;53212;52.112;5.144;2022-11-20T01:38:47;101288.00;;;-3.74
66403;BMP180;53212;52.112;5.144;2022-11-20T01:41:14;101297.80;;;-3.80
66403;BMP180;53212;52.112;5.144;2022-11-20T01:44:01;101293.60;;;-3.80
66403;BMP180;53212;52.112;5.144;2022-11-20T01:46:27;101292.00;;;-3.80
66403;BMP180;53212;52.112;5.144;2022-11-20T01:49:09;101288.00;;;-3.86
66403;BMP180;53212;52.112;5.144;2022-11-20T01:51:44;101284.60;;;-3.82
66403;BMP180;53212;52.112;5.144;2022-11-20T01:54:17;101285.00;;;-3.88
66403;BMP180;53212;52.112;5.144;2022-11-20T01:56:47;101289.80;;;-4.00
66403;BMP180;53212;52.112;5.144;2022-11-20T01:59:16;101287.00;;;-4.00
66403;BMP180;53212;52.112;5.144;2022-11-20T02:01:42;101283.60;;;-4.00
66403;BMP180;53212;52.112;5.144;2022-11-20T02:04:08;101278.20;;;-4.00
66403;BMP180;53212;52.112;5.144;2022-11-20T02:06:43;101274.40;;;-3.96
66403;BMP180;53212;52.112;5.144;2022-11-20T02:09:09;101274.80;;;-4.00
66403;BMP180;53212;52.112;5.144;2022-11-20T02:11:35;101274.60;;;-3.92
66403;BMP180;53212;52.112;5.144;2022-11-20T02:14:00;101271.00;;;-3.90
66403;BMP180;53212;52.112;5.144;2022-11-20T02:16:35;101267.40;;;-4.00
66403;BMP180;53212;52.112;5.144;2022-11-20T02:19:04;101263.00;;;-4.00
66403;BMP180;53212;52.112;5.144;2022-11-20T02:24:18;101257.80;;;-4.00
66403;BMP180;53212;52.112;5.144;2022-11-20T02:26:54;101264.60;;;-4.00
66403;BMP180;53212;52.112;5.144;2022-11-20T02:29:54;101267.00;;;-4.08
66403;BMP180;53212;52.112;5.144;2022-11-20T02:32:26;101265.80;;;-4.10
66403;BMP180;53212;52.112;5.144;2022-11-20T02:34:52;101263.20;;;-4.14
66403;BMP180;53212;52.112;5.144;2022-11-20T02:37:19;101264.20;;;-4.20
66403;BMP180;53212;52.112;5.144;2022-11-20T02:39:50;101262.80;;;-4.20
66403;BMP180;53212;52.112;5.144;2022-11-20T02:42:16;101262.80;;;-4.22
66403;BMP180;53212;52.112;5.144;2022-11-20T02:44:42;101265.80;;;-4.32
66403;BMP180;53212;52.112;5.144;2022-11-20T02:47:08;101269.00;;;-4.38
66403;BMP180;53212;52.112;5.144;2022-11-20T02:49:33;101270.80;;;-4.38
66403;BMP180;53212;52.112;5.144;2022-11-20T02:51:59;101266.20;;;-4.32
66403;BMP180;53212;52.112;5.144;2022-11-20T02:54:24;101262.00;;;-4.30
66403;BMP180;53212;52.112;5.144;2022-11-20T02:56:50;101259.80;;;-4.28
66403;BMP180;53212;52.112;5.144;2022-11-20T02:59:15;101256.80;;;-4.30
66403;BMP180;53212;52.112;5.144;2022-11-20T03:01:41;101253.20;;;-4.28
66403;BMP180;53212;52.112;5.144;2022-11-20T03:04:06;101253.60;;;-4.20
66403;BMP180;53212;52.112;5.144;2022-11-20T03:06:32;101260.80;;;-4.30
66403;BMP180;53212;52.112;5.144;2022-11-20T03:08:58;101250.80;;;-4.36
66403;BMP180;53212;52.112;5.144;2022-11-20T03:11:23;101246.40;;;-4.30
66403;BMP180;53212;52.112;5.144;2022-11-20T03:13:49;101237.20;;;-4.30
66403;BMP180;53212;52.112;5.144;2022-11-20T03:16:18;101232.00;;;-4.28
66403;BMP180;53212;52.112;5.144;2022-11-20T03:18:44;101243.20;;;-4.30
66403;BMP180;53212;52.112;5.144;2022-11-20T03:21:11;101239.80;;;-4.40
66403;BMP180;53212;52.112;5.144;2022-11-20T03:23:38;101240.60;;;-4.40
66403;BMP180;53212;52.112;5.144;2022-11-20T03:26:14;101233.20;;;-4.30
66403;BMP180;53212;52.112;5.144;2022-11-20T03:28:45;101225.80;;;-4.30
66403;BMP180;53212;52.112;5.144;2022-11-20T03:31:14;101228.20;;;-4.24
66403;BMP180;53212;52.112;5.144;2022-11-20T03:33:41;101232.00;;;-4.30
66403;BMP180;53212;52.112;5.144;2022-11-20T03:36:11;101229.20;;;-4.34
66403;BMP180;53212;52.112;5.144;2022-11-20T03:38:37;101228.60;;;-4.32
66403;BMP180;53212;52.112;5.144;2022-11-20T03:41:15;101228.00;;;-4.30
66403;BMP180;53212;52.112;5.144;2022-11-20T03:43:41;101220.80;;;-4.30
66403;BMP180;53212;52.112;5.144;2022-11-20T03:46:07;101215.40;;;-4.20
66403;BMP180;53212;52.112;5.144;2022-11-20T03:48:33;101213.60;;;-4.28
66403;BMP180;53212;52.112;5.144;2022-11-20T03:51:12;101210.80;;;-4.20
66403;BMP180;53212;52.112;5.144;2022-11-20T03:53:39;101211.20;;;-4.20
66403;BMP180;53212;52.112;5.144;2022-11-20T03:56:05;101217.80;;;-4.20
66403;BMP180;53212;52.112;5.144;2022-11-20T03:58:33;101215.20;;;-4.22
66403;BMP180;53212;52.112;5.144;2022-11-20T04:01:07;101204.60;;;-4.20
66403;BMP180;53212;52.112;5.144;2022-11-20T04:03:35;101204.20;;;-4.30
66403;BMP180;53212;52.112;5.144;2022-11-20T04:06:11;101206.80;;;-4.30
66403;BMP180;53212;52.112;5.144;2022-11-20T04:08:37;101198.20;;;-4.40
66403;BMP180;53212;52.112;5.144;2022-11-20T04:13:38;101190.20;;;-4.40
66403;BMP180;53212;52.112;5.144;2022-11-20T04:16:05;101186.40;;;-4.40
66403;BMP180;53212;52.112;5.144;2022-11-20T04:18:32;101187.60;;;-4.40
66403;BMP180;53212;52.112;5.144;2022-11-20T04:20:58;101188.40;;;-4.40
66403;BMP180;53212;52.112;5.144;2022-11-20T04:23:24;101186.40;;;-4.40
66403;BMP180;53212;52.112;5.144;2022-11-20T04:25:50;101184.20;;;-4.40
66403;BMP180;53212;52.112;5.144;2022-11-20T04:28:15;101182.60;;;-4.40
66403;BMP180;53212;52.112;5.144;2022-11-20T04:30:41;101174.00;;;-4.40
66403;BMP180;53212;52.112;5.144;2022-11-20T04:33:06;101171.80;;;-4.40
66403;BMP180;53212;52.112;5.144;2022-11-20T04:35:36;101173.00;;;-4.50
66403;BMP180;53212;52.112;5.144;2022-11-20T04:38:02;101175.40;;;-4.50
66403;BMP180;53212;52.112;5.144;2022-11-20T04:40:28;101174.80;;;-4.50
66403;BMP180;53212;52.112;5.144;2022-11-20T04:42:55;101179.60;;;-4.50
66403;BMP180;53212;52.112;5.144;2022-11-20T04:45:21;101179.60;;;-4.60
66403;BMP180;53212;52.112;5.144;2022-11-20T04:47:47;101178.80;;;-4.60
66403;BMP180;53212;52.112;5.144;2022-11-20T04:50:12;101176.20;;;-4.60
66403;BMP180;53212;52.112;5.144;2022-11-20T04:52:38;101176.40;;;-4.60
66403;BMP180;53212;52.112;5.144;2022-11-20T04:55:04;101171.20;;;-4.60
66403;BMP180;53212;52.112;5.144;2022-11-20T04:57:29;101169.20;;;-4.60
66403;BMP180;53212;52.112;5.144;2022-11-20T04:59:55;101156.20;;;-4.60
66403;BMP180;53212;52.112;5.144;2022-11-20T05:02:20;101153.40;;;-4.60
66403;BMP180;53212;52.112;5.144;2022-11-20T05:04:46;101145.80;;;-4.70
66403;BMP180;53212;52.112;5.144;2022-11-20T05:07:11;101142.80;;;-4.70
66403;BMP180;53212;52.112;5.144;2022-11-20T05:09:37;101142.80;;;-4.70
66403;BMP180;53212;52.112;5.144;2022-11-20T05:12:02;101145.60;;;-4.76
66403;BMP180;53212;52.112;5.144;2022-11-20T05:14:28;101141.80;;;-4.78
66403;BMP180;53212;52.112;5.144;2022-11-20T05:16:53;101143.20;;;-4.80
66403;BMP180;53212;52.112;5.144;2022-11-20T05:19:19;101146.00;;;-4.80
66403;BMP180;53212;52.112;5.144;2022-11-20T05:21:44;101146.00;;;-4.80
66403;BMP180;53212;52.112;5.144;2022-11-20T05:24:09;101144.00;;;-4.80
66403;BMP180;53212;52.112;5.144;2022-11-20T05:26:35;101141.80;;;-4.80
66403;BMP180;53212;52.112;5.144;2022-11-20T05:29:00;101141.00;;;-4.80
66403;BMP180;53212;52.112;5.144;2022-11-20T05:31:26;101137.60;;;-4.80
66403;BMP180;53212;52.112;5.144;2022-11-20T05:33:51;101133.00;;;-4.80
66403;BMP180;53212;52.112;5.144;2022-11-20T05:36:17;101134.00;;;-4.80
66403;BMP180;53212;52.112;5.144;2022-11-20T05:38:43;101134.80;;;-4.80
66403;BMP180;53212;52.112;5.144;2022-11-20T05:41:14;101138.40;;;-4.80
66403;BMP180;53212;52.112;5.144;2022-11-20T05:43:42;101141.60;;;-4.80
66403;BMP180;53212;52.112;5.144;2022-11-20T05:46:11;101149.60;;;-4.90
66403;BMP180;53212;52.112;5.144;2022-11-20T05:48:39;101146.00;;;-4.90
66403;BMP180;53212;52.112;5.144;2022-11-20T05:51:07;101148.60;;;-4.90
66403;BMP180;53212;52.112;5.144;2022-11-20T05:53:34;101156.60;;;-5.10
66403;BMP180;53212;52.112;5.144;2022-11-20T05:56:03;101156.80;;;-5.10
66403;BMP180;53212;52.112;5.144;2022-11-20T05:58:30;101159.80;;;-5.10
66403;BMP180;53212;52.112;5.144;2022-11-20T06:03:40;101155.40;;;-5.00
66403;BMP180;53212;52.112;5.144;2022-11-20T06:06:08;101155.20;;;-4.96
66403;BMP180;53212;52.112;5.144;2022-11-20T06:08:34;101162.80;;;-4.90
66403;BMP180;53212;52.112;5.144;2022-11-20T06:11:08;101166.80;;;-4.90
66403;BMP180;53212;52.112;5.144;2022-11-20T06:13:34;101163.60;;;-4.90
66403;BMP180;53212;52.112;5.144;2022-11-20T06:16:00;101166.00;;;-4.90
66403;BMP180;53212;52.112;5.144;2022-11-20T06:18:27;101156.40;;;-4.84
66403;BMP180;53212;52.112;5.144;2022-11-20T06:21:02;101154.00;;;-4.80
66403;BMP180;53212;52.112;5.144;2022-11-20T06:23:30;101157.80;;;-4.80
66403;BMP180;53212;52.112;5.144;2022-11-20T06:25:57;101155.60;;;-4.70
66403;BMP180;53212;52.112;5.144;2022-11-20T06:28:22;101157.40;;;-4.70
66403;BMP180;53212;52.112;5.144;2022-11-20T06:30:48;101151.80;;;-4.70
66403;BMP180;53212;52.112;5.144;2022-11-20T06:33:13;101149.20;;;-4.72
66403;BMP180;53212;52.112;5.144;2022-11-20T06:35:39;101151.00;;;-4.74
66403;BMP180;53212;52.112;5.144;2022-11-20T06:38:04;101155.00;;;-4.70
66403;BMP180;53212;52.112;5.144;2022-11-20T06:40:29;101150.00;;;-4.70
66403;BMP180;53212;52.112;5.144;2022-11-20T06:42:55;101142.60;;;-4.70
66403;BMP180;53212;52.112;5.144;2022-11-20T06:45:21;101150.00;;;-4.70
66403;BMP180;53212;52.112;5.144;2022-11-20T06:47:47;101151.00;;;-4.70
66403;BMP180;53212;52.112;5.144;2022-11-20T06:50:13;101142.40;;;-4.72
66403;BMP180;53212;52.112;5.144;2022-11-20T06:52:38;101149.40;;;-4.78
66403;BMP180;53212;52.112;5.144;2022-11-20T06:55:04;101144.40;;;-4.80
66403;BMP180;53212;52.112;5.144;2022-11-20T06:57:30;101144.80;;;-4.80
66403;BMP180;53212;52.112;5.144;2022-11-20T06:59:55;101137.80;;;-4.80
66403;BMP180;53212;52.112;5.144;2022-11-20T07:02:20;101133.40;;;-4.78
66403;BMP180;53212;52.112;5.144;2022-11-20T07:04:46;101129.20;;;-4.80
66403;BMP180;53212;52.112;5.144;2022-11-20T07:07:11;101135.40;;;-4.76
66403;BMP180;53212;52.112;5.144;2022-11-20T07:09:37;101133.20;;;-4.80
66403;BMP180;53212;52.112;5.144;2022-11-20T07:12:02;101128.40;;;-4.80
66403;BMP180;53212;52.112;5.144;2022-11-20T07:14:28;101131.80;;;-4.78
66403;BMP180;53212;52.112;5.144;2022-11-20T07:16:54;101129.80;;;-4.70
66403;BMP180;53212;52.112;5.144;2022-11-20T07:19:19;101118.80;;;-4.70
66403;BMP180;53212;52.112;5.144;2022-11-20T07:21:44;101119.20;;;-4.68
66403;BMP180;53212;52.112;5.144;2022-11-20T07:24:10;101116.40;;;-4.60
66403;BMP180;53212;52.112;5.144;2022-11-20T07:26:35;101109.00;;;-4.60
66403;BMP180;53212;52.112;5.144;2022-11-20T07:29:01;101114.00;;;-4.60
66403;BMP180;53212;52.112;5.144;2022-11-20T07:31:26;101116.40;;;-4.50
66403;BMP180;53212;52.112;5.144;2022-11-20T07:33:52;101117.80;;;-4.50
66403;BMP180;53212;52.112;5.144;2022-11-20T07:36:17;101121.40;;;-4.40
66403;BMP180;53212;52.112;5.144;2022-11-20T07:38:42;101118.60;;;-4.40
66403;BMP180;53212;52.112;5.144;2022-11-20T07:41:08;101122.00;;;-4.32
66403;BMP180;53212;52.112;5.144;2022-11-20T07:43:33;101127.20;;;-4.30
66403;BMP180;53212;52.112;5.144;2022-11-20T07:45:59;101131.80;;;-4.20
66403;BMP180;53212;52.112;5.144;2022-11-20T07:48:25;101132.40;;;-4.10
66403;BMP180;53212;52.112;5.144;2022-11-20T07:50:57;101130.80;;;-4.00
66403;BMP180;53212;52.112;5.144;2022-11-20T07:53:24;101135.60;;;-3.92
66403;BMP180;53212;52.112;5.144;2022-11-20T07:55:49;101136.20;;;-3.80
66403;BMP180;53212;52.112;5.144;2022-11-20T07:58:18;101129.20;;;-3.70
66403;BMP180;53212;52.112;5.144;2022-11-20T08:00:44;101125.00;;;-3.70
66403;BMP180;53212;52.112;5.144;2022-11-20T08:03:10;101117.60;;;-3.60
66403;BMP180;53212;52.112;5.144;2022-11-20T08:05:35;101110.00;;;-3.50
66403;BMP180;53212;52.112;5.144;2022-11-20T08:08:00;101113.00;;;-3.40
66403;BMP180;53212;52.112;5.144;2022-11-20T08:10:26;101111.00;;;-3.30
66403;BMP180;53212;52.112;5.144;2022-11-20T08:12:53;101107.00;;;-3.20
66403;BMP180;53212;52.112;5.144;2022-11-20T08:15:38;101110.80;;;-3.06
66403;BMP180;53212;52.112;5.144;2022-11-20T08:18:10;101103.80;;;-3.00
66403;BMP180;53212;52.112;5.144;2022-11-20T08:20:38;101104.20;;;-2.90
66403;BMP180;53212;52.112;5.144;2022-11-20T08:23:06;101108.00;;;-2.84
66403;BMP180;53212;52.112;5.144;2022-11-20T08:25:36;101113.60;;;-2.80
66403;BMP180;53212;52.112;5.144;2022-11-20T08:28:08;101114.00;;;-2.70
66403;BMP180;53212;52.112;5.144;2022-11-20T08:30:35;101120.80;;;-2.64
66403;BMP180;53212;52.112;5.144;2022-11-20T08:33:04;101114.20;;;-2.58
66403;BMP180;53212;52.112;5.144;2022-11-20T08:35:37;101114.20;;;-2.50
66403;BMP180;53212;52.112;5.144;2022-11-20T08:38:04;101112.80;;;-2.40
66403;BMP180;53212;52.112;5.144;2022-11-20T08:40:30;101115.00;;;-2.30
66403;BMP180;53212;52.112;5.144;2022-11-20T08:42:56;101112.80;;;-2.20
66403;BMP180;53212;52.112;5.144;2022-11-20T08:45:22;101113.40;;;-2.18
66403;BMP180;53212;52.112;5.144;2022-11-20T08:47:47;101116.20;;;-2.10
66403;BMP180;53212;52.112;5.144;2022-11-20T08:50:15;101122.00;;;-2.00
66403;BMP180;53212;52.112;5.144;2022-11-20T08:52:41;101112.20;;;-1.90
66403;BMP180;53212;52.112;5.144;2022-11-20T08:55:08;101115.60;;;-1.80
66403;BMP180;53212;52.112;5.144;2022-11-20T08:57:34;101114.60;;;-1.70
66403;BMP180;53212;52.112;5.144;2022-11-20T09:00:00;101108.80;;;-1.70
66403;BMP180;53212;52.112;5.144;2022-11-20T09:02:26;101111.00;;;-1.60
66403;BMP180;53212;52.112;5.144;2022-11-20T09:04:51;101109.00;;;-1.52
66403;BMP180;53212;52.112;5.144;2022-11-20T09:07:18;101105.40;;;-1.42
66403;BMP180;53212;52.112;5.144;2022-11-20T09:09:44;101097.40;;;-1.30
66403;BMP180;53212;52.112;5.144;2022-11-20T09:12:09;101099.40;;;-1.12
66403;BMP180;53212;52.112;5.144;2022-11-20T09:14:34;101096.20;;;-1.00
66403;BMP180;53212;52.112;5.144;2022-11-20T09:17:00;101099.40;;;-1.00
66403;BMP180;53212;52.112;5.144;2022-11-20T09:19:25;101093.40;;;-0.98
66403;BMP180;53212;52.112;5.144;2022-11-20T09:21:51;101086.80;;;-0.90
66403;BMP180;53212;52.112;5.144;2022-11-20T09:24:17;101083.60;;;-0.86
66403;BMP180;53212;52.112;5.144;2022-11-20T09:26:43;101080.20;;;-0.78
66403;BMP180;53212;52.112;5.144;2022-11-20T09:29:09;101074.00;;;-0.70
66403;BMP180;53212;52.112;5.144;2022-11-20T09:31:34;101064.20;;;-0.60
66403;BMP180;53212;52.112;5.144;2022-11-20T09:33:59;101058.20;;;-0.50
66403;BMP180;53212;52.112;5.144;2022-11-20T09:36:25;101059.20;;;-0.40
66403;BMP180;53212;52.112;5.144;2022-11-20T09:38:51;101057.80;;;-0.34
66403;BMP180;53212;52.112;5.144;2022-11-20T09:48:29;101048.80;;;-0.10
66403;BMP180;53212;52.112;5.144;2022-11-20T09:56:01;101042.40;;;0.10
66403;BMP180;53212;52.112;5.144;2022-11-20T09:58:34;101038.00;;;0.20
66403;BMP180;53212;52.112;5.144;2022-11-20T10:01:19;101036.80;;;0.20
66403;BMP180;53212;52.112;5.144;2022-11-20T10:06:46;101035.20;;;0.30
66403;BMP180;53212;52.112;5.144;2022-11-20T10:11:48;101030.40;;;0.50
66403;BMP180;53212;52.112;5.144;2022-11-20T10:23:14;101012.60;;;0.60
66403;BMP180;53212;52.112;5.144;2022-11-20T10:26:05;101003.20;;;0.60
66403;BMP180;53212;52.112;5.144;2022-11-20T10:29:03;100991.00;;;0.70
66403;BMP180;53212;52.112;5.144;2022-11-20T10:31:52;100984.00;;;0.80
66403;BMP180;53212;52.112;5.144;2022-11-20T10:35:14;100974.20;;;0.80
66403;BMP180;53212;52.112;5.144;2022-11-20T10:37:44;100974.40;;;0.90
66403;BMP180;53212;52.112;5.144;2022-11-20T10:40:50;100975.40;;;1.00
66403;BMP180;53212;52.112;5.144;2022-11-20T10:43:22;100964.80;;;1.06
66403;BMP180;53212;52.112;5.144;2022-11-20T10:48:24;100956.00;;;1.20
66403;BMP180;53212;52.112;5.144;2022-11-20T10:54:24;100948.00;;;1.24
66403;BMP180;53212;52.112;5.144;2022-11-20T10:57:02;100937.00;;;1.30
66403;BMP180;53212;52.112;5.144;2022-11-20T11:02:20;100917.40;;;1.40
66403;BMP180;53212;52.112;5.144;2022-11-20T11:04:53;100912.20;;;1.50
66403;BMP180;53212;52.112;5.144;2022-11-20T11:07:35;100909.80;;;1.52
66403;BMP180;53212;52.112;5.144;2022-11-20T11:10:01;100903.40;;;1.60
66403;BMP180;53212;52.112;5.144;2022-11-20T11:12:28;100901.20;;;1.60
66403;BMP180;53212;52.112;5.144;2022-11-20T11:14:56;100899.40;;;1.50
66403;BMP180;53212;52.112;5.144;2022-11-20T11:17:31;100890.80;;;1.50
66403;BMP180;53212;52.112;5.144;2022-11-20T11:20:04;100883.20;;;1.50
66403;BMP180;53212;52.112;5.144;2022-11-20T11:22:34;100879.40;;;1.50
66403;BMP180;53212;52.112;5.144;2022-11-20T11:25:00;100874.00;;;1.50
66403;BMP180;53212;52.112;5.144;2022-11-20T11:27:26;100877.80;;;1.50
66403;BMP180;53212;52.112;5.144;2022-11-20T11:30:11;100874.40;;;1.50
66403;BMP180;53212;52.112;5.144;2022-11-20T11:32:37;100863.60;;;1.50
66403;BMP180;53212;52.112;5.144;2022-11-20T11:35:27;100861.80;;;1.50
66403;BMP180;53212;52.112;5.144;2022-11-20T11:38:02;100850.60;;;1.50
66403;BMP180;53212;52.112;5.144;2022-11-20T11:40:31;100851.00;;;1.50
66403;BMP180;53212;52.112;5.144;2022-11-20T11:43:02;100855.60;;;1.56
66403;BMP180;53212;52.112;5.144;2022-11-20T11:45:29;100847.80;;;1.60
66403;BMP180;53212;52.112;5.144;2022-11-20T11:47:58;100841.00;;;1.50
66403;BMP180;53212;52.112;5.144;2022-11-20T11:50:28;100839.60;;;1.50
66403;BMP180;53212;52.112;5.144;2022-11-20T11:53:12;100832.80;;;1.50
66403;BMP180;53212;52.112;5.144;2022-11-20T11:55:52;100833.80;;;1.50
66403;BMP180;53212;52.112;5.144;2022-11-20T11:58:34;100827.20;;;1.52
66403;BMP180;53212;52.112;5.144;2022-11-20T12:07:25;100813.00;;;1.70
66403;BMP180;53212;52.112;5.144;2022-11-20T12:09:57;100810.40;;;1.70
66403;BMP180;53212;52.112;5.144;2022-11-20T12:12:31;100806.20;;;1.78
66403;BMP180;53212;52.112;5.144;2022-11-20T12:15:00;100801.20;;;1.80
66403;BMP180;53212;52.112;5.144;2022-11-20T12:17:26;100793.60;;;1.80
66403;BMP180;53212;52.112;5.144;2022-11-20T12:19:51;100788.20;;;1.82
66403;BMP180;53212;52.112;5.144;2022-11-20T12:22:34;100783.80;;;1.90
66403;BMP180;53212;52.112;5.144;2022-11-20T12:25:43;100778.80;;;1.90
66403;BMP180;53212;52.112;5.144;2022-11-20T12:28:59;100771.40;;;1.90
66403;BMP180;53212;52.112;5.144;2022-11-20T12:31:45;100768.20;;;1.82
66403;BMP180;53212;52.112;5.144;2022-11-20T12:40:00;100735.80;;;1.80
66403;BMP180;53212;52.112;5.144;2022-11-20T12:43:21;100733.60;;;1.80
66403;BMP180;53212;52.112;5.144;2022-11-20T12:49:15;100723.20;;;1.90
66403;BMP180;53212;52.112;5.144;2022-11-20T12:55:04;100716.40;;;2.00
66403;BMP180;53212;52.112;5.144;2022-11-20T12:58:05;100714.20;;;2.10
66403;BMP180;53212;52.112;5.144;2022-11-20T13:00:35;100711.40;;;2.10
66403;BMP180;53212;52.112;5.144;2022-11-20T13:03:16;100706.40;;;2.10
66403;BMP180;53212;52.112;5.144;2022-11-20T13:06:16;100696.60;;;2.10
66403;BMP180;53212;52.112;5.144;2022-11-20T13:08:55;100695.00;;;2.10
66403;BMP180;53212;52.112;5.144;2022-11-20T13:11:44;100684.00;;;2.10
66403;BMP180;53212;52.112;5.144;2022-11-20T13:17:52;100685.00;;;2.10
66403;BMP180;53212;52.112;5.144;2022-11-20T13:20:20;100683.60;;;2.30
66403;BMP180;53212;52.112;5.144;2022-11-20T13:22:48;100689.60;;;2.74
66403;BMP180;53212;52.112;5.144;2022-11-20T13:25:38;100687.80;;;3.10
66403;BMP180;53212;52.112;5.144;2022-11-20T13:30:49;100685.00;;;3.50
66403;BMP180;53212;52.112;5.144;2022-11-20T13:33:36;100677.00;;;3.20
66403;BMP180;53212;52.112;5.144;2022-11-20T13:36:07;100667.40;;;2.96
66403;BMP180;53212;52.112;5.144;2022-11-20T13:39:05;100659.80;;;2.80
66403;BMP180;53212;52.112;5.144;2022-11-20T13:41:36;100657.00;;;2.60
66403;BMP180;53212;52.112;5.144;2022-11-20T13:44:29;100650.20;;;2.50
66403;BMP180;53212;52.112;5.144;2022-11-20T13:46:55;100642.40;;;2.40
66403;BMP180;53212;52.112;5.144;2022-11-20T13:49:38;100642.80;;;2.40
66403;BMP180;53212;52.112;5.144;2022-11-20T14:00:51;100629.00;;;4.40
66403;BMP180;53212;52.112;5.144;2022-11-20T14:03:22;100620.00;;;4.80
66403;BMP180;53212;52.112;5.144;2022-11-20T14:06:01;100586.60;;;5.00
66403;BMP180;53212;52.112;5.144;2022-11-20T14:08:44;100580.20;;;5.00
66403;BMP180;53212;52.112;5.144;2022-11-20T14:11:15;100590.60;;;4.70
66403;BMP180;53212;52.112;5.144;2022-11-20T14:16:28;100600.80;;;4.04
66403;BMP180;53212;52.112;5.144;2022-11-20T14:18:55;100588.60;;;3.68
66403;BMP180;53212;52.112;5.144;2022-11-20T14:21:28;100578.60;;;3.40
66403;BMP180;53212;52.112;5.144;2022-11-20T14:24:05;100567.20;;;3.20
66403;BMP180;53212;52.112;5.144;2022-11-20T14:26:31;100567.60;;;3.08
66403;BMP180;53212;52.112;5.144;2022-11-20T14:28:57;100567.40;;;2.90
66403;BMP180;53212;52.112;5.144;2022-11-20T14:31:26;100563.60;;;2.90
66403;BMP180;53212;52.112;5.144;2022-11-20T14:33:53;100562.00;;;2.72
66403;BMP180;53212;52.112;5.144;2022-11-20T14:36:22;100554.00;;;2.70
66403;BMP180;53212;52.112;5.144;2022-11-20T14:38:49;100555.60;;;2.60
66403;BMP180;53212;52.112;5.144;2022-11-20T14:41:24;100555.80;;;2.50
66403;BMP180;53212;52.112;5.144;2022-11-20T14:44:01;100548.80;;;2.50
66403;BMP180;53212;52.112;5.144;2022-11-20T14:46:29;100546.60;;;2.40
66403;BMP180;53212;52.112;5.144;2022-11-20T14:49:00;100542.20;;;2.40
66403;BMP180;53212;52.112;5.144;2022-11-20T14:51:38;100537.20;;;2.40
66403;BMP180;53212;52.112;5.144;2022-11-20T14:54:18;100533.60;;;2.40
66403;BMP180;53212;52.112;5.144;2022-11-20T14:57:02;100528.80;;;2.30
66403;BMP180;53212;52.112;5.144;2022-11-20T14:59:33;100524.00;;;2.30
66403;BMP180;53212;52.112;5.144;2022-11-20T15:02:09;100525.20;;;2.30
66403;BMP180;53212;52.112;5.144;2022-11-20T15:04:50;100528.60;;;2.30
66403;BMP180;53212;52.112;5.144;2022-11-20T15:07:31;100520.20;;;2.30
66403;BMP180;53212;52.112;5.144;2022-11-20T15:10:05;100512.20;;;2.30
66403;BMP180;53212;52.112;5.144;2022-11-20T15:12:40;100499.00;;;2.30
66403;BMP180;53212;52.112;5.144;2022-11-20T15:15:12;100481.40;;;2.30
66403;BMP180;53212;52.112;5.144;2022-11-20T15:17:40;100481.60;;;2.30
66403;BMP180;53212;52.112;5.144;2022-11-20T15:20:14;100483.00;;;2.30
66403;BMP180;53212;52.112;5.144;2022-11-20T15:22:41;100481.60;;;2.30
66403;BMP180;53212;52.112;5.144;2022-11-20T15:25:16;100477.60;;;2.24
66403;BMP180;53212;52.112;5.144;2022-11-20T15:27:43;100465.80;;;2.22
66403;BMP180;53212;52.112;5.144;2022-11-20T15:30:18;100455.20;;;2.20
66403;BMP180;53212;52.112;5.144;2022-11-20T15:32:45;100451.20;;;2.22
66403;BMP180;53212;52.112;5.144;2022-11-20T15:35:12;100449.80;;;2.20
66403;BMP180;53212;52.112;5.144;2022-11-20T15:37:38;100447.80;;;2.20
66403;BMP180;53212;52.112;5.144;2022-11-20T15:40:05;100442.80;;;2.20